Time;durP1;ratioP1;P1;durP2;ratioP2;P2;SDS_P1;SDS_P2;PMS_P1;PMS_P2;Temp;Humidity;BMP_temperature;BMP_pressure;BME280_temperature;BME280_humidity;BME280_pressure;Samples;Min_cycle;Max_cycle;Signal;HPM_P1;HPM_P2
2023/03/14 00:00:10;;;;;;;12.90;3.77;;;;;;;;;;5093415;28;20202;-80
2023/03/14 00:02:38;;;;;;;15.73;5.10;;;;;;;;;;5093786;28;20198;-80
2023/03/14 00:05:07;;;;;;;11.93;4.23;;;;;;;;;;5093637;28;20265;-80
2023/03/14 00:07:36;;;;;;;8.60;3.50;;;;;;;;;;5093549;28;20210;-81
2023/03/14 00:10:05;;;;;;;10.83;4.03;;;;;;;;;;5093309;28;20242;-81
2023/03/14 00:12:35;;;;;;;5.60;2.60;;;;;;;;;;5093492;28;20285;-81
2023/03/14 00:15:04;;;;;;;12.97;4.53;;;;;;;;;;5093822;28;20298;-81
2023/03/14 00:17:32;;;;;;;3.30;2.07;;;;;;;;;;5093400;28;20230;-81
2023/03/14 00:20:07;;;;;;;7.07;4.13;;;;;;;;;;5093405;28;20292;-80
2023/03/14 00:22:36;;;;;;;14.30;5.00;;;;;;;;;;5093913;28;20250;-81
2023/03/14 00:25:05;;;;;;;6.97;4.20;;;;;;;;;;5093907;28;20202;-81
2023/03/14 00:27:36;;;;;;;19.47;2.57;;;;;;;;;;5093317;28;20244;-80
2023/03/14 00:30:04;;;;;;;12.63;3.07;;;;;;;;;;5093758;28;20202;-81
2023/03/14 00:32:33;;;;;;;11.40;3.47;;;;;;;;;;5093336;28;20282;-80
2023/03/14 00:35:01;;;;;;;9.70;3.83;;;;;;;;;;5093022;28;20248;-81
2023/03/14 00:37:30;;;;;;;10.53;3.53;;;;;;;;;;5094230;28;20203;-87
2023/03/14 00:39:58;;;;;;;3.73;2.50;;;;;;;;;;5094326;28;20224;-86
2023/03/14 00:42:27;;;;;;;16.03;5.10;;;;;;;;;;5093921;28;20223;-86
2023/03/14 00:44:56;;;;;;;16.37;5.13;;;;;;;;;;5093162;28;20206;-86
2023/03/14 00:47:25;;;;;;;11.87;5.07;;;;;;;;;;5094189;28;20229;-86
2023/03/14 00:49:53;;;;;;;11.70;3.50;;;;;;;;;;5093537;28;20197;-86
2023/03/14 00:52:21;;;;;;;11.83;3.60;;;;;;;;;;5093185;28;20229;-86
2023/03/14 00:54:50;;;;;;;9.47;3.87;;;;;;;;;;5093272;28;20267;-86
2023/03/14 00:57:18;;;;;;;14.80;3.37;;;;;;;;;;5093301;28;20245;-86
2023/03/14 00:59:46;;;;;;;11.83;4.27;;;;;;;;;;5092996;28;20202;-87
2023/03/14 01:02:16;;;;;;;7.67;3.57;;;;;;;;;;5092804;28;20272;-86
2023/03/14 01:04:45;;;;;;;12.73;3.60;;;;;;;;;;5093295;28;20280;-86
2023/03/14 01:07:13;;;;;;;15.47;3.40;;;;;;;;;;5093336;28;20276;-86
2023/03/14 01:09:41;;;;;;;8.53;2.90;;;;;;;;;;5093337;28;20230;-86
2023/03/14 01:12:10;;;;;;;11.43;2.80;;;;;;;;;;5093130;28;20195;-86
2023/03/14 01:14:38;;;;;;;16.43;4.13;;;;;;;;;;5092990;28;20199;-86
2023/03/14 01:17:06;;;;;;;8.33;3.17;;;;;;;;;;5093566;28;20275;-86
2023/03/14 01:19:36;;;;;;;19.63;6.93;;;;;;;;;;5092486;28;20234;-81
2023/03/14 01:22:05;;;;;;;15.63;5.00;;;;;;;;;;5092457;28;20215;-81
2023/03/14 01:24:33;;;;;;;17.70;4.67;;;;;;;;;;5092442;28;20248;-81
2023/03/14 01:27:01;;;;;;;14.00;4.20;;;;;;;;;;5092466;28;20207;-81
2023/03/14 01:29:30;;;;;;;21.30;4.23;;;;;;;;;;5095451;28;20406;-81
2023/03/14 01:31:58;;;;;;;9.87;3.33;;;;;;;;;;5096212;28;20234;-80
2023/03/14 01:34:26;;;;;;;19.77;5.63;;;;;;;;;;5096037;28;20203;-80
2023/03/14 01:36:56;;;;;;;12.87;3.57;;;;;;;;;;5096192;28;20325;-81
2023/03/14 01:39:24;;;;;;;28.43;6.33;;;;;;;;;;5097051;28;20199;-86
2023/03/14 01:41:53;;;;;;;22.47;7.07;;;;;;;;;;5096793;28;20218;-86
2023/03/14 01:44:21;;;;;;;12.87;4.00;;;;;;;;;;5096716;28;20198;-87
2023/03/14 01:46:50;;;;;;;14.40;5.53;;;;;;;;;;5096729;28;20310;-86
2023/03/14 01:49:21;;;;;;;11.00;4.63;;;;;;;;;;5096710;28;20252;-86
2023/03/14 01:51:53;;;;;;;7.97;3.53;;;;;;;;;;5096499;28;20220;-86
2023/03/14 01:54:24;;;;;;;22.17;5.60;;;;;;;;;;5096251;28;20292;-85
2023/03/14 01:56:54;;;;;;;13.23;3.90;;;;;;;;;;5097333;28;20205;-86
2023/03/14 01:59:23;;;;;;;10.93;3.70;;;;;;;;;;5096462;28;20251;-86
2023/03/14 02:01:52;;;;;;;20.40;5.40;;;;;;;;;;5096623;28;20309;-81
2023/03/14 02:04:21;;;;;;;12.83;5.03;;;;;;;;;;5095425;28;20225;-81
2023/03/14 02:06:52;;;;;;;19.67;2.80;;;;;;;;;;5095212;28;20362;-80
2023/03/14 02:09:20;;;;;;;24.33;4.80;;;;;;;;;;5095479;28;20290;-81
2023/03/14 02:11:50;;;;;;;19.47;4.43;;;;;;;;;;5095435;28;20225;-85
2023/03/14 02:14:24;;;;;;;6.13;2.47;;;;;;;;;;5096671;28;20194;-87
2023/03/14 02:16:52;;;;;;;6.40;1.83;;;;;;;;;;5096452;28;20198;-86
2023/03/14 02:19:24;;;;;;;18.73;5.13;;;;;;;;;;5096061;28;20232;-86
2023/03/14 02:21:55;;;;;;;23.30;4.40;;;;;;;;;;5095618;28;20250;-86
2023/03/14 02:24:26;;;;;;;19.03;5.93;;;;;;;;;;5095975;28;20205;-86
2023/03/14 02:27:12;;;;;;;12.33;4.17;;;;;;;;;;5095916;28;20297;-86
2023/03/14 02:29:45;;;;;;;13.93;4.17;;;;;;;;;;5096144;28;20297;-87
2023/03/14 02:32:14;;;;;;;11.37;3.67;;;;;;;;;;5096295;28;20211;-85
2023/03/14 02:34:43;;;;;;;11.67;3.23;;;;;;;;;;5095516;28;20294;-85
2023/03/14 02:37:12;;;;;;;9.37;3.57;;;;;;;;;;5095643;28;20205;-87
2023/03/14 02:39:41;;;;;;;12.73;5.03;;;;;;;;;;5095499;28;20299;-86
2023/03/14 02:42:11;;;;;;;13.10;3.97;;;;;;;;;;5095890;28;20500;-86
2023/03/14 02:44:49;;;;;;;18.10;5.47;;;;;;;;;;5095378;28;20248;-87
2023/03/14 02:47:17;;;;;;;19.27;5.50;;;;;;;;;;5095519;28;20204;-86
2023/03/14 02:49:45;;;;;;;16.70;4.73;;;;;;;;;;5095254;28;20204;-86
2023/03/14 02:52:14;;;;;;;18.97;4.77;;;;;;;;;;5095472;28;20242;-86
2023/03/14 02:54:42;;;;;;;21.67;7.00;;;;;;;;;;5095539;28;20299;-87
2023/03/14 02:57:12;;;;;;;6.60;2.43;;;;;;;;;;5095144;28;20202;-81
2023/03/14 02:59:40;;;;;;;17.43;4.77;;;;;;;;;;5094562;28;20210;-81
2023/03/14 03:02:08;;;;;;;23.93;6.83;;;;;;;;;;5094583;28;20237;-81
2023/03/14 03:07:13;;;;;;;13.10;4.33;;;;;;;;;;5034392;22;20241;-80
2023/03/14 03:09:44;;;;;;;13.67;5.23;;;;;;;;;;4993924;28;20230;-80
2023/03/14 03:12:14;;;;;;;10.80;4.50;;;;;;;;;;4994034;28;20206;-81
2023/03/14 03:14:42;;;;;;;15.17;3.93;;;;;;;;;;4993992;28;20263;-81
2023/03/14 03:17:11;;;;;;;8.17;4.57;;;;;;;;;;4993792;28;20207;-81
2023/03/14 03:19:39;;;;;;;13.57;3.37;;;;;;;;;;4993846;28;20202;-81
2023/03/14 03:22:08;;;;;;;6.87;3.00;;;;;;;;;;4993353;28;20217;-81
2023/03/14 03:24:36;;;;;;;6.03;2.90;;;;;;;;;;4993794;28;20253;-81
2023/03/14 03:27:04;;;;;;;6.97;2.23;;;;;;;;;;4993246;28;20207;-81
2023/03/14 03:29:34;;;;;;;8.60;2.40;;;;;;;;;;4993563;28;20322;-81
2023/03/14 03:32:03;;;;;;;8.23;3.77;;;;;;;;;;4993493;28;20210;-81
2023/03/14 03:34:31;;;;;;;7.10;2.37;;;;;;;;;;4993565;28;20234;-81
2023/03/14 03:36:59;;;;;;;7.00;2.20;;;;;;;;;;4993244;28;20209;-82
2023/03/14 03:39:28;;;;;;;8.83;3.73;;;;;;;;;;4993278;28;20234;-82
2023/03/14 03:41:56;;;;;;;8.87;3.73;;;;;;;;;;4993062;28;20214;-82
2023/03/14 03:44:24;;;;;;;15.10;4.33;;;;;;;;;;4992941;28;20242;-82
2023/03/14 03:46:54;;;;;;;14.67;5.87;;;;;;;;;;4993106;28;20389;-82
2023/03/14 03:49:23;;;;;;;12.97;4.40;;;;;;;;;;4993275;28;20240;-82
2023/03/14 03:51:51;;;;;;;18.13;5.70;;;;;;;;;;4992426;28;20206;-82
2023/03/14 03:54:20;;;;;;;7.33;3.57;;;;;;;;;;4993397;28;20207;-82
2023/03/14 03:56:48;;;;;;;5.00;2.33;;;;;;;;;;4993041;28;20226;-82
2023/03/14 03:59:17;;;;;;;12.43;4.17;;;;;;;;;;4992846;28;20296;-82
2023/03/14 04:01:45;;;;;;;13.13;4.57;;;;;;;;;;4992586;28;20215;-82
2023/03/14 04:04:15;;;;;;;14.03;4.20;;;;;;;;;;4992796;28;20250;-81
2023/03/14 04:06:44;;;;;;;8.73;3.60;;;;;;;;;;4992355;28;20340;-82
2023/03/14 04:09:13;;;;;;;11.93;3.47;;;;;;;;;;4992958;28;20209;-82
2023/03/14 04:11:42;;;;;;;16.83;4.57;;;;;;;;;;4992639;28;20296;-82
2023/03/14 04:14:10;;;;;;;9.43;4.23;;;;;;;;;;4992807;28;20229;-82
2023/03/14 04:16:38;;;;;;;13.77;5.27;;;;;;;;;;4992781;28;20235;-82
2023/03/14 04:19:07;;;;;;;8.53;4.57;;;;;;;;;;4992481;28;20210;-82
2023/03/14 04:21:40;;;;;;;10.43;4.40;;;;;;;;;;4992721;28;20241;-82
2023/03/14 04:24:08;;;;;;;12.20;5.53;;;;;;;;;;4992623;28;20244;-81
2023/03/14 04:26:37;;;;;;;11.57;4.23;;;;;;;;;;4992497;28;20205;-81
2023/03/14 04:29:05;;;;;;;20.23;8.53;;;;;;;;;;4992886;28;20240;-81
2023/03/14 04:31:33;;;;;;;5.27;3.30;;;;;;;;;;4992723;28;20238;-81
2023/03/14 04:34:02;;;;;;;10.37;4.90;;;;;;;;;;4992644;28;20293;-81
2023/03/14 04:36:30;;;;;;;14.43;5.80;;;;;;;;;;4992560;28;20224;-81
2023/03/14 04:39:00;;;;;;;14.23;5.27;;;;;;;;;;4992450;28;20209;-80
2023/03/14 04:41:28;;;;;;;7.20;4.20;;;;;;;;;;4992569;28;20205;-81
2023/03/14 04:43:59;;;;;;;9.73;4.47;;;;;;;;;;4992691;28;20252;-81
2023/03/14 04:46:28;;;;;;;7.43;2.77;;;;;;;;;;4992811;28;20237;-81
2023/03/14 04:48:56;;;;;;;15.97;5.07;;;;;;;;;;4992577;28;20212;-81
2023/03/14 04:51:27;;;;;;;12.73;5.23;;;;;;;;;;4992394;28;20229;-81
2023/03/14 04:53:55;;;;;;;16.93;6.33;;;;;;;;;;4992743;28;20255;-80
2023/03/14 04:56:25;;;;;;;11.50;3.93;;;;;;;;;;4992694;28;20253;-80
2023/03/14 04:58:53;;;;;;;4.63;3.53;;;;;;;;;;4992513;28;20209;-80
2023/03/14 05:01:22;;;;;;;9.00;2.57;;;;;;;;;;4992416;28;20212;-80
2023/03/14 05:03:50;;;;;;;7.10;2.60;;;;;;;;;;4994142;28;20275;-80
2023/03/14 05:06:19;;;;;;;12.90;4.33;;;;;;;;;;4995708;28;20269;-80
2023/03/14 05:08:47;;;;;;;11.97;3.43;;;;;;;;;;4995840;28;20297;-79
2023/03/14 05:11:15;;;;;;;10.40;5.07;;;;;;;;;;4996026;28;20302;-80
2023/03/14 05:13:45;;;;;;;21.50;7.10;;;;;;;;;;4995953;28;20213;-80
2023/03/14 05:16:13;;;;;;;15.33;5.43;;;;;;;;;;4995899;28;20204;-80
2023/03/14 05:18:42;;;;;;;9.40;4.87;;;;;;;;;;4995814;28;20266;-80
2023/03/14 05:21:10;;;;;;;6.77;2.87;;;;;;;;;;4995893;28;20210;-80
2023/03/14 05:23:39;;;;;;;6.73;2.10;;;;;;;;;;4995556;28;20319;-80
2023/03/14 05:26:07;;;;;;;0.70;0.70;;;;;;;;;;4995689;28;20196;-80
2023/03/14 05:28:36;;;;;;;0.70;0.70;;;;;;;;;;4995903;28;20263;-80
2023/03/14 05:31:09;;;;;;;0.70;0.70;;;;;;;;;;4995703;28;20291;-80
2023/03/14 05:33:37;;;;;;;0.70;0.70;;;;;;;;;;4995543;28;20219;-79
2023/03/14 05:36:06;;;;;;;0.70;0.70;;;;;;;;;;4995473;28;20211;-80
2023/03/14 05:38:35;;;;;;;0.70;0.70;;;;;;;;;;4995446;28;20200;-80
2023/03/14 05:41:03;;;;;;;0.70;0.70;;;;;;;;;;4995401;28;20196;-80
2023/03/14 05:43:31;;;;;;;0.70;0.70;;;;;;;;;;4995109;28;20316;-80
2023/03/14 05:46:00;;;;;;;0.60;0.60;;;;;;;;;;4995497;28;20233;-80
2023/03/14 05:48:30;;;;;;;0.70;0.70;;;;;;;;;;4995074;28;20243;-79
2023/03/14 05:50:59;;;;;;;0.70;0.70;;;;;;;;;;4995260;28;20203;-80
2023/03/14 05:53:28;;;;;;;0.60;0.60;;;;;;;;;;4995278;28;20309;-80
2023/03/14 05:55:57;;;;;;;0.70;0.70;;;;;;;;;;4995415;28;20299;-80
2023/03/14 05:58:26;;;;;;;0.70;0.70;;;;;;;;;;4995060;28;20239;-80
2023/03/14 06:00:54;;;;;;;0.70;0.70;;;;;;;;;;4995008;28;20232;-80
2023/03/14 06:03:22;;;;;;;0.70;0.70;;;;;;;;;;4995092;28;20231;-79
2023/03/14 06:05:52;;;;;;;0.70;0.70;;;;;;;;;;4994648;28;20255;-80
2023/03/14 06:08:21;;;;;;;0.70;0.70;;;;;;;;;;4994955;28;20209;-80
2023/03/14 06:10:49;;;;;;;0.70;0.70;;;;;;;;;;4994698;28;20205;-80
2023/03/14 06:13:17;;;;;;;0.70;0.70;;;;;;;;;;4994567;28;20236;-79
2023/03/14 06:15:46;;;;;;;0.70;0.70;;;;;;;;;;4994525;28;20200;-80
2023/03/14 06:18:14;;;;;;;0.70;0.70;;;;;;;;;;4994315;28;20308;-80
2023/03/14 06:20:43;;;;;;;0.70;0.70;;;;;;;;;;4994576;28;20204;-79
2023/03/14 06:23:13;;;;;;;0.70;0.70;;;;;;;;;;4994657;28;20200;-79
2023/03/14 06:25:41;;;;;;;0.70;0.70;;;;;;;;;;4993941;28;20288;-79
2023/03/14 06:28:09;;;;;;;0.70;0.70;;;;;;;;;;4994319;28;20204;-81
2023/03/14 06:30:38;;;;;;;0.70;0.70;;;;;;;;;;4994472;28;20279;-81
2023/03/14 06:33:06;;;;;;;0.70;0.70;;;;;;;;;;4994229;28;20208;-82
2023/03/14 06:35:35;;;;;;;0.70;0.70;;;;;;;;;;4993976;28;20224;-82
2023/03/14 06:38:04;;;;;;;0.70;0.70;;;;;;;;;;4993995;28;20244;-82
2023/03/14 06:40:34;;;;;;;0.70;0.70;;;;;;;;;;4994186;28;20243;-82
2023/03/14 06:43:02;;;;;;;0.70;0.70;;;;;;;;;;4994410;28;20299;-83
2023/03/14 06:45:31;;;;;;;0.70;0.70;;;;;;;;;;4994142;28;20244;-83
2023/03/14 06:47:59;;;;;;;4.57;2.20;;;;;;;;;;4994327;28;20201;-83
2023/03/14 06:50:27;;;;;;;12.10;2.40;;;;;;;;;;4993858;28;20205;-83
2023/03/14 06:52:57;;;;;;;12.80;2.90;;;;;;;;;;4994115;28;20295;-83
2023/03/14 06:55:27;;;;;;;7.93;3.07;;;;;;;;;;4994284;28;20236;-83
2023/03/14 06:57:56;;;;;;;7.77;3.37;;;;;;;;;;4993666;28;20189;-83
2023/03/14 07:00:26;;;;;;;10.97;1.97;;;;;;;;;;4993795;28;20205;-83
2023/03/14 07:02:54;;;;;;;7.03;2.37;;;;;;;;;;4993473;28;20216;-83
2023/03/14 07:05:22;;;;;;;10.60;1.97;;;;;;;;;;4993458;28;20343;-83
2023/03/14 07:07:51;;;;;;;11.37;2.87;;;;;;;;;;4993564;28;20192;-83
2023/03/14 07:10:19;;;;;;;7.67;3.63;;;;;;;;;;4993792;28;20278;-83
2023/03/14 07:12:48;;;;;;;2.90;1.50;;;;;;;;;;4993628;28;20299;-83
2023/03/14 07:15:17;;;;;;;5.90;1.93;;;;;;;;;;4993147;28;20189;-83
2023/03/14 07:17:47;;;;;;;6.87;2.07;;;;;;;;;;4993742;28;20299;-83
2023/03/14 07:20:16;;;;;;;7.97;1.83;;;;;;;;;;4993292;28;20513;-83
2023/03/14 07:22:47;;;;;;;3.03;1.20;;;;;;;;;;4993318;28;20210;-83
2023/03/14 07:25:16;;;;;;;2.53;1.43;;;;;;;;;;4993176;28;20283;-83
2023/03/14 07:27:44;;;;;;;7.10;2.17;;;;;;;;;;4992924;28;20204;-83
2023/03/14 07:30:13;;;;;;;5.13;2.73;;;;;;;;;;4992957;28;20204;-83
2023/03/14 07:32:43;;;;;;;3.60;2.37;;;;;;;;;;4993052;28;20196;-83
2023/03/14 07:35:11;;;;;;;4.13;1.93;;;;;;;;;;4992649;28;20200;-83
2023/03/14 07:37:40;;;;;;;1.83;1.60;;;;;;;;;;4992848;28;20204;-83
2023/03/14 07:40:10;;;;;;;1.80;1.60;;;;;;;;;;4992838;28;20254;-84
2023/03/14 07:42:38;;;;;;;4.70;2.73;;;;;;;;;;4993148;28;20220;-84
2023/03/14 07:45:08;;;;;;;4.17;2.30;;;;;;;;;;4992883;28;20271;-84
2023/03/14 07:47:37;;;;;;;4.07;1.80;;;;;;;;;;4993255;28;20255;-84
2023/03/14 07:50:09;;;;;;;5.27;2.30;;;;;;;;;;4992942;28;20200;-85
2023/03/14 07:52:38;;;;;;;3.87;1.73;;;;;;;;;;4987995;28;20204;-84
2023/03/14 07:55:07;;;;;;;5.67;2.17;;;;;;;;;;4992930;28;20219;-85
2023/03/14 07:57:35;;;;;;;4.27;2.40;;;;;;;;;;4991947;28;20279;-84
2023/03/14 08:00:05;;;;;;;5.47;2.13;;;;;;;;;;4992850;28;20200;-84
2023/03/14 08:02:34;;;;;;;7.50;1.97;;;;;;;;;;4991278;28;20205;-84
2023/03/14 08:05:03;;;;;;;8.63;2.53;;;;;;;;;;4991630;28;20220;-83
2023/03/14 08:07:33;;;;;;;3.70;3.30;;;;;;;;;;4984540;28;20261;-84
2023/03/14 08:10:02;;;;;;;18.03;3.20;;;;;;;;;;4987145;28;20235;-85
2023/03/14 08:12:37;;;;;;;7.10;2.10;;;;;;;;;;4992471;28;20222;-86
2023/03/14 08:15:09;;;;;;;8.63;2.90;;;;;;;;;;4988047;28;20264;-85
2023/03/14 08:17:37;;;;;;;3.70;2.60;;;;;;;;;;4988285;28;20200;-85
2023/03/14 08:20:08;;;;;;;9.73;2.73;;;;;;;;;;4989435;28;20216;-84
2023/03/14 08:22:38;;;;;;;13.47;4.17;;;;;;;;;;4989682;28;20243;-85
2023/03/14 08:25:07;;;;;;;2.70;1.30;;;;;;;;;;4983305;28;20266;-85
2023/03/14 08:27:37;;;;;;;10.10;3.53;;;;;;;;;;4995903;28;20229;-85
2023/03/14 08:30:06;;;;;;;6.13;2.67;;;;;;;;;;4976076;28;20204;-85
2023/03/14 08:32:35;;;;;;;8.90;3.67;;;;;;;;;;4993896;28;20212;-84
2023/03/14 08:35:03;;;;;;;9.90;2.67;;;;;;;;;;4988271;28;20299;-85
2023/03/14 08:37:32;;;;;;;17.00;4.33;;;;;;;;;;4992591;28;20204;-84
2023/03/14 08:40:04;;;;;;;12.67;3.77;;;;;;;;;;4995194;28;20255;-85
2023/03/14 08:42:37;;;;;;;6.73;3.57;;;;;;;;;;4991226;28;20291;-84
2023/03/14 08:45:07;;;;;;;13.83;3.80;;;;;;;;;;4994938;28;20196;-84
2023/03/14 08:47:35;;;;;;;6.23;2.67;;;;;;;;;;5008961;28;20215;-85
2023/03/14 08:50:05;;;;;;;10.70;3.67;;;;;;;;;;4995320;28;20268;-85
2023/03/14 08:52:33;;;;;;;6.20;3.23;;;;;;;;;;4993864;28;20254;-84
2023/03/14 08:55:03;;;;;;;15.27;4.90;;;;;;;;;;4997410;28;20204;-84
2023/03/14 08:57:31;;;;;;;15.00;4.00;;;;;;;;;;4991760;28;20315;-84
2023/03/14 09:00:00;;;;;;;5.47;2.03;;;;;;;;;;5006534;28;20201;-84
2023/03/14 09:02:28;;;;;;;12.10;3.33;;;;;;;;;;4992601;28;20216;-83
2023/03/14 09:04:57;;;;;;;9.53;2.93;;;;;;;;;;4993481;28;20207;-83
2023/03/14 09:07:25;;;;;;;9.43;3.53;;;;;;;;;;4995362;28;20374;-83
2023/03/14 09:09:54;;;;;;;9.40;3.00;;;;;;;;;;4995771;28;20204;-85
2023/03/14 09:12:24;;;;;;;15.73;4.17;;;;;;;;;;4990495;28;20215;-84
2023/03/14 09:14:52;;;;;;;9.90;3.57;;;;;;;;;;4994117;28;20537;-84
2023/03/14 09:17:21;;;;;;;6.43;2.83;;;;;;;;;;4991274;28;20200;-84
2023/03/14 09:19:49;;;;;;;15.30;4.37;;;;;;;;;;4978987;28;20209;-84
2023/03/14 09:22:18;;;;;;;20.23;5.53;;;;;;;;;;4985265;28;20197;-84
2023/03/14 09:24:47;;;;;;;19.70;5.47;;;;;;;;;;4994885;28;20204;-84
2023/03/14 09:27:21;;;;;;;9.43;3.47;;;;;;;;;;4993959;28;20278;-84
2023/03/14 09:29:50;;;;;;;19.53;4.53;;;;;;;;;;4994117;28;20200;-84
2023/03/14 09:32:19;;;;;;;5.70;3.03;;;;;;;;;;5006926;28;20208;-83
2023/03/14 09:34:48;;;;;;;18.90;4.43;;;;;;;;;;5002850;28;20206;-83
2023/03/14 09:37:19;;;;;;;20.87;5.63;;;;;;;;;;4989814;28;20193;-82
2023/03/14 09:39:48;;;;;;;31.97;6.47;;;;;;;;;;4991515;28;20196;-83
2023/03/14 09:42:18;;;;;;;15.57;4.47;;;;;;;;;;4993372;28;20200;-83
2023/03/14 09:44:53;;;;;;;14.60;5.30;;;;;;;;;;4993679;28;20205;-83
2023/03/14 09:47:24;;;;;;;13.37;4.23;;;;;;;;;;4993969;28;20254;-83
2023/03/14 09:49:52;;;;;;;14.93;3.33;;;;;;;;;;4993509;28;20240;-83
2023/03/14 09:52:23;;;;;;;19.87;4.20;;;;;;;;;;4995560;28;20208;-83
2023/03/14 09:54:52;;;;;;;20.53;4.50;;;;;;;;;;4993430;28;20243;-83
2023/03/14 09:57:22;;;;;;;13.37;5.07;;;;;;;;;;4979742;28;20209;-83
2023/03/14 09:59:51;;;;;;;10.53;3.43;;;;;;;;;;4990621;28;20201;-82
2023/03/14 10:02:21;;;;;;;14.87;4.57;;;;;;;;;;4998791;28;20208;-83
2023/03/14 10:04:51;;;;;;;8.47;3.60;;;;;;;;;;5014330;28;20235;-83
2023/03/14 10:07:23;;;;;;;19.77;4.37;;;;;;;;;;4996782;28;20247;-83
2023/03/14 10:09:52;;;;;;;13.93;3.67;;;;;;;;;;4992505;28;20212;-83
2023/03/14 10:12:21;;;;;;;12.63;5.00;;;;;;;;;;4982410;28;20213;-84
2023/03/14 10:14:51;;;;;;;15.17;3.43;;;;;;;;;;4975637;28;20204;-85
2023/03/14 10:17:21;;;;;;;15.97;4.03;;;;;;;;;;4985665;28;20197;-84
2023/03/14 10:19:56;;;;;;;7.13;3.30;;;;;;;;;;4987861;28;20291;-84
2023/03/14 10:22:28;;;;;;;14.03;3.20;;;;;;;;;;4986917;28;20232;-84
2023/03/14 10:24:59;;;;;;;10.67;3.30;;;;;;;;;;4994298;28;20211;-85
2023/03/14 10:27:41;;;;;;;8.83;3.83;;;;;;;;;;5003828;28;20230;-85
2023/03/14 10:30:28;;;;;;;6.77;3.30;;;;;;;;;;4992724;28;20196;-85
2023/03/14 10:32:59;;;;;;;10.77;3.70;;;;;;;;;;4993968;28;20200;-84
2023/03/14 10:35:38;;;;;;;2.20;1.57;;;;;;;;;;5000686;28;20212;-84
2023/03/14 10:38:07;;;;;;;11.43;3.07;;;;;;;;;;4983999;28;20227;-84
2023/03/14 10:40:39;;;;;;;11.73;3.10;;;;;;;;;;4986893;28;20193;-84
2023/03/14 10:43:09;;;;;;;4.90;2.67;;;;;;;;;;4984253;28;20279;-83
2023/03/14 10:45:39;;;;;;;8.63;3.23;;;;;;;;;;4990233;28;20231;-83
2023/03/14 10:48:19;;;;;;;3.80;1.90;;;;;;;;;;4985918;28;20232;-83
2023/03/14 10:50:56;;;;;;;8.97;2.90;;;;;;;;;;4985162;28;20212;-83
2023/03/14 10:53:40;;;;;;;8.47;2.70;;;;;;;;;;4989550;28;20208;-83
2023/03/14 10:56:11;;;;;;;10.67;2.77;;;;;;;;;;4989313;28;20215;-83
2023/03/14 10:58:41;;;;;;;5.67;2.80;;;;;;;;;;5000305;28;20196;-83
2023/03/14 11:01:29;;;;;;;5.93;3.77;;;;;;;;;;4987691;28;20250;-83
2023/03/14 11:03:59;;;;;;;4.07;2.10;;;;;;;;;;4997247;28;20203;-82
2023/03/14 11:06:35;;;;;;;11.27;3.73;;;;;;;;;;4995388;28;20254;-82
2023/03/14 11:09:07;;;;;;;4.27;2.60;;;;;;;;;;5006847;28;20211;-82
2023/03/14 11:11:36;;;;;;;9.23;3.07;;;;;;;;;;4992600;28;20311;-83
2023/03/14 11:14:11;;;;;;;4.57;2.20;;;;;;;;;;4991501;28;20208;-83
2023/03/14 11:16:45;;;;;;;6.43;2.30;;;;;;;;;;4987853;28;20257;-83
2023/03/14 11:19:21;;;;;;;6.87;2.80;;;;;;;;;;4989638;28;20239;-84
2023/03/14 11:21:56;;;;;;;8.90;2.47;;;;;;;;;;4995573;28;20211;-83
2023/03/14 11:24:51;;;;;;;6.50;2.10;;;;;;;;;;4986481;28;20202;-83
2023/03/14 11:27:27;;;;;;;10.27;2.83;;;;;;;;;;4986639;28;20247;-83
2023/03/14 11:30:02;;;;;;;4.90;2.40;;;;;;;;;;4986885;28;20200;-82
2023/03/14 11:32:41;;;;;;;2.50;1.50;;;;;;;;;;4988202;28;20215;-83
2023/03/14 11:35:17;;;;;;;8.57;1.70;;;;;;;;;;4987645;28;20200;-83
2023/03/14 11:37:54;;;;;;;5.07;2.17;;;;;;;;;;5007031;28;20216;-84
2023/03/14 11:40:24;;;;;;;2.23;1.50;;;;;;;;;;4990121;28;20211;-82
2023/03/14 11:42:57;;;;;;;3.77;2.13;;;;;;;;;;4988241;28;20225;-82
2023/03/14 11:45:32;;;;;;;4.20;2.43;;;;;;;;;;4988635;28;20282;-82
2023/03/14 11:48:11;;;;;;;5.93;2.20;;;;;;;;;;4977000;28;20246;-83
2023/03/14 11:50:40;;;;;;;1.20;1.20;;;;;;;;;;5001853;28;20207;-82
2023/03/14 11:53:18;;;;;;;3.53;2.03;;;;;;;;;;4996846;28;20201;-82
2023/03/14 11:55:49;;;;;;;6.67;2.27;;;;;;;;;;5006289;28;20216;-81
2023/03/14 11:58:21;;;;;;;2.27;1.63;;;;;;;;;;4979158;28;20272;-81
2023/03/14 12:00:50;;;;;;;5.40;2.47;;;;;;;;;;4982494;28;20209;-80
2023/03/14 12:03:23;;;;;;;3.83;1.60;;;;;;;;;;4986689;28;20208;-80
2023/03/14 12:05:58;;;;;;;3.57;2.43;;;;;;;;;;4978379;28;20232;-81
2023/03/14 12:08:44;;;;;;;7.53;2.07;;;;;;;;;;4992125;28;20223;-80
2023/03/14 12:11:22;;;;;;;1.60;1.53;;;;;;;;;;4992106;28;20299;-79
2023/03/14 12:13:52;;;;;;;4.10;1.87;;;;;;;;;;4986116;28;20274;-80
2023/03/14 12:16:35;;;;;;;4.03;1.73;;;;;;;;;;4992443;28;20232;-80
2023/03/14 12:19:17;;;;;;;5.97;5.57;;;;;;;;;;4991324;28;20215;-81
2023/03/14 12:21:48;;;;;;;3.10;2.07;;;;;;;;;;4994306;28;20301;-81
2023/03/14 12:24:19;;;;;;;3.87;1.57;;;;;;;;;;5008301;28;20212;-82
2023/03/14 12:26:51;;;;;;;7.37;2.00;;;;;;;;;;4991069;28;20300;-83
2023/03/14 12:29:20;;;;;;;7.23;2.60;;;;;;;;;;4984613;28;20307;-83
2023/03/14 12:31:49;;;;;;;10.67;2.00;;;;;;;;;;4992074;28;20196;-83
2023/03/14 12:34:28;;;;;;;3.53;1.70;;;;;;;;;;4992146;28;20281;-83
2023/03/14 12:37:03;;;;;;;2.70;1.80;;;;;;;;;;4980834;28;20303;-82
2023/03/14 12:39:35;;;;;;;15.20;2.67;;;;;;;;;;4989048;28;20322;-83
2023/03/14 12:42:05;;;;;;;1.53;1.40;;;;;;;;;;4996812;28;20207;-82
2023/03/14 12:44:41;;;;;;;6.17;1.83;;;;;;;;;;4994432;28;20268;-82
2023/03/14 12:47:31;;;;;;;3.27;2.97;;;;;;;;;;4987352;28;20255;-81
2023/03/14 12:50:09;;;;;;;7.30;2.30;;;;;;;;;;4982348;28;20227;-82
2023/03/14 12:52:42;;;;;;;7.77;2.23;;;;;;;;;;4982100;28;20214;-82
2023/03/14 12:55:17;;;;;;;3.00;1.70;;;;;;;;;;4972600;28;20207;-82
2023/03/14 12:57:52;;;;;;;8.53;2.13;;;;;;;;;;4991299;28;20205;-81
2023/03/14 13:00:23;;;;;;;3.37;1.87;;;;;;;;;;4989440;28;20209;-82
2023/03/14 13:02:52;;;;;;;3.33;1.57;;;;;;;;;;4987165;28;20226;-82
2023/03/14 13:05:21;;;;;;;2.27;2.07;;;;;;;;;;4995152;28;20229;-83
2023/03/14 13:08:09;;;;;;;2.40;1.67;;;;;;;;;;4988554;28;20275;-83
2023/03/14 13:10:41;;;;;;;2.50;1.80;;;;;;;;;;4983266;28;20217;-82
2023/03/14 13:13:17;;;;;;;3.87;2.27;;;;;;;;;;4991593;28;20194;-83
2023/03/14 13:15:48;;;;;;;5.00;2.20;;;;;;;;;;4992660;28;20207;-83
2023/03/14 13:18:21;;;;;;;5.87;2.00;;;;;;;;;;4991736;28;20196;-83
2023/03/14 13:20:51;;;;;;;3.27;2.03;;;;;;;;;;4991174;28;20197;-83
2023/03/14 13:23:24;;;;;;;5.03;2.27;;;;;;;;;;4992402;28;20204;-83
2023/03/14 13:25:53;;;;;;;4.23;1.50;;;;;;;;;;4995616;28;20208;-83
2023/03/14 13:28:23;;;;;;;2.57;1.40;;;;;;;;;;4995438;28;20263;-83
2023/03/14 13:30:56;;;;;;;3.93;1.67;;;;;;;;;;4995729;28;20200;-83
2023/03/14 13:33:25;;;;;;;3.40;2.50;;;;;;;;;;4995679;28;20204;-83
2023/03/14 13:35:57;;;;;;;4.87;1.97;;;;;;;;;;4995546;28;20201;-83
2023/03/14 13:38:26;;;;;;;3.10;1.83;;;;;;;;;;4995396;28;20193;-82
2023/03/14 13:41:00;;;;;;;2.53;1.47;;;;;;;;;;4995540;28;20208;-82
2023/03/14 13:43:32;;;;;;;14.40;1.90;;;;;;;;;;4994949;28;20224;-82
2023/03/14 13:46:05;;;;;;;2.33;1.97;;;;;;;;;;4995133;28;20231;-82
2023/03/14 13:48:42;;;;;;;2.77;1.70;;;;;;;;;;4994758;28;20228;-82
2023/03/14 13:51:16;;;;;;;2.33;2.00;;;;;;;;;;4995414;28;20193;-82
2023/03/14 13:53:48;;;;;;;2.00;1.80;;;;;;;;;;4995475;28;20205;-82
2023/03/14 13:56:23;;;;;;;1.70;1.60;;;;;;;;;;4994969;28;20206;-82
2023/03/14 13:58:56;;;;;;;10.97;2.70;;;;;;;;;;4995190;28;20203;-82
2023/03/14 14:01:30;;;;;;;4.37;1.77;;;;;;;;;;4994827;28;20227;-82
2023/03/14 14:04:03;;;;;;;4.33;1.87;;;;;;;;;;4995074;28;20234;-83
2023/03/14 14:06:32;;;;;;;1.47;1.33;;;;;;;;;;4994490;28;20272;-83
2023/03/14 14:09:03;;;;;;;3.53;1.60;;;;;;;;;;4994302;28;20271;-83
2023/03/14 14:11:39;;;;;;;4.33;1.70;;;;;;;;;;4994723;28;20283;-83
2023/03/14 14:14:23;;;;;;;2.97;1.97;;;;;;;;;;4995151;28;20203;-82
2023/03/14 14:16:52;;;;;;;2.93;1.57;;;;;;;;;;4994786;28;20200;-82
2023/03/14 14:19:23;;;;;;;2.93;1.80;;;;;;;;;;4994589;28;20204;-82
2023/03/14 14:21:52;;;;;;;15.27;2.07;;;;;;;;;;4994952;28;20204;-82
2023/03/14 14:24:24;;;;;;;4.30;1.93;;;;;;;;;;4994934;28;20204;-82
2023/03/14 14:26:53;;;;;;;3.50;1.70;;;;;;;;;;4994708;28;20271;-82
2023/03/14 14:29:28;;;;;;;4.03;1.87;;;;;;;;;;4994324;28;20212;-81
2023/03/14 14:32:03;;;;;;;3.03;1.20;;;;;;;;;;4994640;28;20200;-82
2023/03/14 14:34:39;;;;;;;4.90;2.17;;;;;;;;;;4994483;28;20210;-82
2023/03/14 14:37:19;;;;;;;5.03;2.20;;;;;;;;;;4994204;28;20203;-82
2023/03/14 14:39:47;;;;;;;7.10;2.27;;;;;;;;;;4993933;28;20208;-82
2023/03/14 14:42:17;;;;;;;2.70;1.73;;;;;;;;;;4994413;28;20203;-81
2023/03/14 14:44:49;;;;;;;6.53;2.37;;;;;;;;;;4994246;28;20231;-82
2023/03/14 14:47:19;;;;;;;3.77;1.50;;;;;;;;;;4994359;28;20256;-83
2023/03/14 14:49:49;;;;;;;6.00;2.27;;;;;;;;;;4994047;28;20224;-83
2023/03/14 14:52:19;;;;;;;4.83;2.13;;;;;;;;;;4994159;28;20206;-83
2023/03/14 14:54:50;;;;;;;5.07;2.07;;;;;;;;;;4993953;28;20303;-83
2023/03/14 14:57:20;;;;;;;1.20;1.10;;;;;;;;;;4994167;28;20245;-82
2023/03/14 14:59:53;;;;;;;2.57;1.80;;;;;;;;;;4994127;28;20194;-82